createdAt,value
2023-02-12T00:00:09.083Z,-0.10
2023-02-12T00:01:21.233Z,-0.10
2023-02-12T00:02:22.666Z,-0.10
2023-02-12T00:03:24.261Z,-0.10
2023-02-12T00:04:25.727Z,0.00
2023-02-12T00:05:27.274Z,-0.10
2023-02-12T00:06:28.810Z,-0.10
2023-02-12T00:07:31.546Z,-0.10
2023-02-12T00:08:33.334Z,-0.10
2023-02-12T00:09:34.774Z,-0.10
2023-02-12T00:10:40.935Z,-0.10
2023-02-12T00:11:42.361Z,-0.10
2023-02-12T00:12:43.725Z,-0.10
2023-02-12T00:13:45.729Z,-0.10
2023-02-12T00:14:47.257Z,-0.20
2023-02-12T00:15:48.773Z,-0.20
2023-02-12T00:16:50.582Z,-0.20
2023-02-12T00:17:51.957Z,-0.20
2023-02-12T00:18:55.439Z,-0.20
2023-02-12T00:19:56.766Z,-0.20
2023-02-12T00:21:00.729Z,-0.20
2023-02-12T00:22:02.137Z,-0.20
2023-02-12T00:23:03.819Z,-0.20
2023-02-12T00:24:05.444Z,-0.10
2023-02-12T00:25:07.514Z,-0.10
2023-02-12T00:26:11.662Z,-0.20
2023-02-12T00:27:17.606Z,-0.20
2023-02-12T00:28:19.029Z,-0.20
2023-02-12T00:29:20.847Z,-0.30
2023-02-12T00:30:22.417Z,-0.30
2023-02-12T00:31:26.914Z,-0.30
2023-02-12T00:32:30.941Z,-0.20
2023-02-12T00:33:33.399Z,-0.20
2023-02-12T00:34:34.981Z,-0.20
2023-02-12T00:35:36.466Z,-0.20
2023-02-12T00:36:37.924Z,-0.20
2023-02-12T00:37:40.472Z,-0.20
2023-02-12T00:38:42.092Z,-0.30
2023-02-12T00:39:44.807Z,-0.30
2023-02-12T00:40:46.630Z,-0.30
2023-02-12T00:41:48.310Z,-0.30
2023-02-12T00:42:49.691Z,-0.30
2023-02-12T00:43:52.323Z,-0.30
2023-02-12T00:44:53.708Z,-0.20
2023-02-12T00:45:55.620Z,-0.20
2023-02-12T00:46:57.866Z,-0.20
2023-02-12T00:47:59.316Z,-0.20
2023-02-12T00:49:00.775Z,-0.20
2023-02-12T00:50:02.190Z,-0.20
2023-02-12T00:51:04.503Z,-0.20
2023-02-12T00:52:06.032Z,-0.20
2023-02-12T00:53:08.288Z,-0.10
2023-02-12T00:54:09.725Z,-0.10
2023-02-12T00:55:11.783Z,-0.20
2023-02-12T00:56:13.482Z,-0.20
2023-02-12T00:57:14.936Z,-0.20
2023-02-12T00:58:18.926Z,-0.20
2023-02-12T00:59:20.525Z,-0.10
2023-02-12T01:00:22.257Z,-0.10
2023-02-12T01:01:23.805Z,-0.10
2023-02-12T01:02:25.666Z,-0.10
2023-02-12T01:03:27.238Z,-0.10
2023-02-12T01:04:28.743Z,-0.20
2023-02-12T01:05:30.846Z,-0.20
2023-02-12T01:06:32.292Z,-0.20
2023-02-12T01:07:33.816Z,-0.20
2023-02-12T01:08:35.671Z,-0.20
2023-02-12T01:09:37.221Z,-0.20
2023-02-12T01:10:38.610Z,-0.20
2023-02-12T01:11:40.393Z,-0.20
2023-02-12T01:12:42.027Z,-0.20
2023-02-12T01:13:43.538Z,-0.20
2023-02-12T01:14:45.242Z,-0.30
2023-02-12T01:15:47.285Z,-0.30
2023-02-12T01:16:48.914Z,-0.30
2023-02-12T01:17:54.094Z,-0.30
2023-02-12T01:18:56.168Z,-0.20
2023-02-12T01:19:59.103Z,-0.20
2023-02-12T01:21:01.372Z,-0.20
2023-02-12T01:22:03.494Z,-0.20
2023-02-12T01:23:06.932Z,-0.20
2023-02-12T01:24:08.738Z,-0.30
2023-02-12T01:25:10.482Z,-0.20
2023-02-12T01:26:12.585Z,-0.20
2023-02-12T01:27:13.971Z,-0.20
2023-02-12T01:28:15.439Z,-0.30
2023-02-12T01:29:16.864Z,-0.30
2023-02-12T01:30:22.070Z,-0.20
2023-02-12T01:31:29.102Z,-0.30
2023-02-12T01:32:30.974Z,-0.30
2023-02-12T01:33:32.394Z,-0.20
2023-02-12T01:34:33.757Z,-0.20
2023-02-12T01:35:37.450Z,-0.30
2023-02-12T01:36:39.264Z,-0.30
2023-02-12T01:37:41.030Z,-0.30
2023-02-12T01:38:42.471Z,-0.40
2023-02-12T01:39:43.914Z,-0.40
2023-02-12T01:40:45.311Z,-0.40
2023-02-12T01:41:46.783Z,-0.30
2023-02-12T01:42:48.284Z,-0.30
2023-02-12T01:44:12.463Z,-0.30
2023-02-12T01:45:13.852Z,-0.30
2023-02-12T01:46:15.494Z,-0.30
2023-02-12T01:47:18.688Z,-0.30
2023-02-12T01:48:22.851Z,-0.30
2023-02-12T01:49:38.740Z,-0.20
2023-02-12T01:50:42.904Z,-0.20
2023-02-12T01:51:46.704Z,-0.20
2023-02-12T01:52:53.589Z,-0.30
2023-02-12T01:53:58.948Z,-0.20
2023-02-12T01:55:04.078Z,-0.20
2023-02-12T01:56:07.978Z,-0.20
2023-02-12T01:57:12.814Z,-0.30
2023-02-12T01:58:14.767Z,-0.20
2023-02-12T01:59:17.767Z,-0.30
2023-02-12T02:00:24.920Z,-0.30
2023-02-12T02:01:29.786Z,-0.20
2023-02-12T02:02:32.128Z,-0.30
2023-02-12T02:03:36.232Z,-0.30
2023-02-12T02:04:44.014Z,-0.30
2023-02-12T02:05:56.754Z,-0.30
2023-02-12T02:07:04.394Z,-0.30
2023-02-12T02:08:06.112Z,-0.30
2023-02-12T02:09:07.750Z,-0.20
2023-02-12T02:10:10.101Z,-0.20
2023-02-12T02:11:30.360Z,-0.20
2023-02-12T02:12:54.193Z,-0.20
2023-02-12T02:14:14.846Z,-0.30
2023-02-12T02:15:16.962Z,-0.30
2023-02-12T02:16:26.366Z,-0.30
2023-02-12T02:17:30.668Z,-0.30
2023-02-12T02:19:02.516Z,-0.30
2023-02-12T02:20:29.062Z,-0.30
2023-02-12T02:21:47.115Z,-0.20
2023-02-12T02:23:06.077Z,-0.30
2023-02-12T02:24:32.988Z,-0.30
2023-02-12T02:26:02.482Z,-0.30
2023-02-12T02:27:25.897Z,-0.30
2023-02-12T02:28:28.290Z,-0.30
2023-02-12T02:29:39.166Z,-0.20
2023-02-12T02:30:57.782Z,-0.30
2023-02-12T02:32:06.377Z,-0.30
2023-02-12T02:33:20.216Z,-0.30
2023-02-12T02:34:33.446Z,-0.40
2023-02-12T02:35:51.226Z,-0.50
2023-02-12T02:37:27.268Z,-0.40
2023-02-12T02:38:41.725Z,-0.50
2023-02-12T02:40:12.899Z,-0.50
2023-02-12T02:41:39.150Z,-0.50
2023-02-12T02:43:03.383Z,-0.40
2023-02-12T02:44:13.486Z,-0.50
2023-02-12T02:45:16.377Z,-0.50
2023-02-12T02:46:28.434Z,-0.50
2023-02-12T02:47:42.288Z,-0.60
2023-02-12T02:48:56.830Z,-0.50
2023-02-12T02:50:03.730Z,-0.50
2023-02-12T02:51:10.719Z,-0.50
2023-02-12T02:52:17.277Z,-0.50
2023-02-12T02:53:32.076Z,-0.50
2023-02-12T02:54:39.512Z,-0.60
2023-02-12T02:55:47.729Z,-0.60
2023-02-12T02:56:55.251Z,-0.60
2023-02-12T02:57:59.946Z,-0.60
2023-02-12T02:59:16.043Z,-0.60
2023-02-12T03:00:26.171Z,-0.60
2023-02-12T03:01:36.613Z,-0.50
2023-02-12T03:02:41.989Z,-0.60
2023-02-12T03:03:54.836Z,-0.60
2023-02-12T03:05:03.428Z,-0.50
2023-02-12T03:06:10.496Z,-0.50
2023-02-12T03:07:17.633Z,-0.50
2023-02-12T03:08:34.504Z,-0.40
2023-02-12T03:10:05.387Z,-0.40
2023-02-12T03:11:24.427Z,-0.40
2023-02-12T03:12:44.204Z,-0.40
2023-02-12T03:13:56.669Z,-0.40
2023-02-12T03:15:07.329Z,-0.50
2023-02-12T03:16:23.239Z,-0.50
2023-02-12T03:17:39.429Z,-0.50
2023-02-12T03:18:46.065Z,-0.50
2023-02-12T03:19:55.237Z,-0.60
2023-02-12T03:21:02.324Z,-0.60
2023-02-12T03:22:11.730Z,-0.60
2023-02-12T03:23:21.935Z,-0.50
2023-02-12T03:24:29.571Z,-0.50
2023-02-12T03:25:40.735Z,-0.50
2023-02-12T03:27:25.430Z,-0.50
2023-02-12T03:28:31.382Z,-0.50
2023-02-12T03:29:33.378Z,-0.60
2023-02-12T03:30:59.352Z,-0.60
2023-02-12T03:32:10.632Z,-0.70
2023-02-12T03:33:28.813Z,-0.70
2023-02-12T03:34:40.195Z,-0.60
2023-02-12T03:35:56.728Z,-0.70
2023-02-12T03:37:14.401Z,-0.60
2023-02-12T03:38:22.333Z,-0.60
2023-02-12T03:39:33.465Z,-0.60
2023-02-12T03:40:44.046Z,-0.60
2023-02-12T03:41:56.318Z,-0.60
2023-02-12T03:43:00.481Z,-0.60
2023-02-12T03:44:14.702Z,-0.60
2023-02-12T03:45:44.959Z,-0.70
2023-02-12T03:47:00.006Z,-0.70
2023-02-12T03:48:10.448Z,-0.60
2023-02-12T03:49:23.588Z,-0.60
2023-02-12T03:50:33.553Z,-0.60
2023-02-12T03:51:36.748Z,-0.60
2023-02-12T03:52:38.255Z,-0.60
2023-02-12T03:53:39.969Z,-0.70
2023-02-12T03:54:41.432Z,-0.70
2023-02-12T03:55:47.191Z,-0.70
2023-02-12T03:57:07.702Z,-0.70
2023-02-12T03:58:12.916Z,-0.60
2023-02-12T03:59:14.653Z,-0.60
2023-02-12T04:00:20.330Z,-0.70
2023-02-12T04:01:26.230Z,-0.60
2023-02-12T04:02:28.389Z,-0.60
2023-02-12T04:03:31.177Z,-0.60
2023-02-12T04:04:33.056Z,-0.60
2023-02-12T04:05:34.590Z,-0.60
2023-02-12T04:06:36.500Z,-0.70
2023-02-12T04:07:37.956Z,-0.70
2023-02-12T04:08:39.619Z,-0.60
2023-02-12T04:09:41.216Z,-0.70
2023-02-12T04:10:52.252Z,-0.70
2023-02-12T04:12:05.445Z,-0.70
2023-02-12T04:13:12.250Z,-0.70
2023-02-12T04:14:21.450Z,-0.70
2023-02-12T04:15:44.863Z,-0.60
2023-02-12T04:16:57.813Z,-0.70
2023-02-12T04:18:22.511Z,-0.70
2023-02-12T04:19:51.524Z,-0.70
2023-02-12T04:21:10.239Z,-0.70
2023-02-12T04:22:18.334Z,-0.70
2023-02-12T04:23:40.983Z,-0.70
2023-02-12T04:24:48.832Z,-0.70
2023-02-12T04:26:21.689Z,-0.70
2023-02-12T04:27:30.499Z,-0.70
2023-02-12T04:28:47.955Z,-0.70
2023-02-12T04:30:09.707Z,-0.70
2023-02-12T04:31:34.652Z,-0.70
2023-02-12T04:32:42.828Z,-0.70
2023-02-12T04:34:20.307Z,-0.70
2023-02-12T04:35:34.473Z,-0.80
2023-02-12T04:36:42.980Z,-0.80
2023-02-12T04:37:51.199Z,-0.80
2023-02-12T04:39:15.372Z,-0.90
2023-02-12T04:40:19.493Z,-0.80
2023-02-12T04:41:21.327Z,-0.80
2023-02-12T04:42:23.205Z,-0.80
2023-02-12T04:43:36.482Z,-0.80
2023-02-12T04:44:41.859Z,-0.80
2023-02-12T04:45:43.329Z,-0.80
2023-02-12T04:46:44.886Z,-0.80
2023-02-12T04:47:47.110Z,-0.70
2023-02-12T04:48:57.935Z,-0.70
2023-02-12T04:49:59.302Z,-0.70
2023-02-12T04:51:01.330Z,-0.70
2023-02-12T04:52:02.877Z,-0.70
2023-02-12T04:53:04.466Z,-0.70
2023-02-12T04:54:06.002Z,-0.70
2023-02-12T04:55:07.593Z,-0.70
2023-02-12T04:56:13.140Z,-0.70
2023-02-12T04:57:14.498Z,-0.70
2023-02-12T04:58:16.365Z,-0.70
2023-02-12T04:59:17.972Z,-0.70
2023-02-12T05:00:19.707Z,-0.80
2023-02-12T05:01:21.083Z,-0.80
2023-02-12T05:02:24.941Z,-0.80
2023-02-12T05:03:26.453Z,-0.80
2023-02-12T05:04:27.937Z,-0.80
2023-02-12T05:05:29.569Z,-0.80
2023-02-12T05:06:31.685Z,-0.80
2023-02-12T05:07:33.085Z,-0.80
2023-02-12T05:08:34.859Z,-0.80
2023-02-12T05:09:36.248Z,-0.90
2023-02-12T05:10:37.673Z,-0.90
2023-02-12T05:11:39.092Z,-0.80
2023-02-12T05:12:40.618Z,-0.80
2023-02-12T05:13:42.663Z,-0.90
2023-02-12T05:14:44.011Z,-0.80
2023-02-12T05:15:45.428Z,-0.80
2023-02-12T05:16:46.867Z,-0.80
2023-02-12T05:17:48.269Z,-0.90
2023-02-12T05:18:50.559Z,-0.90
2023-02-12T05:19:52.560Z,-0.90
2023-02-12T05:20:58.397Z,-0.90
2023-02-12T05:21:59.868Z,-0.90
2023-02-12T05:23:01.349Z,-0.80
2023-02-12T05:24:03.627Z,-0.90
2023-02-12T05:25:05.637Z,-0.90
2023-02-12T05:26:15.923Z,-0.90
2023-02-12T05:27:17.383Z,-0.90
2023-02-12T05:28:19.082Z,-0.90
2023-02-12T05:29:20.798Z,-0.90
2023-02-12T05:30:22.410Z,-0.90
2023-02-12T05:31:24.517Z,-0.90
2023-02-12T05:32:26.308Z,-0.80
2023-02-12T05:33:28.237Z,-0.90
2023-02-12T05:34:29.729Z,-0.90
2023-02-12T05:35:31.104Z,-0.80
2023-02-12T05:36:32.504Z,-0.80
2023-02-12T05:37:37.455Z,-0.80
2023-02-12T05:38:39.361Z,-0.70
2023-02-12T05:39:40.888Z,-0.70
2023-02-12T05:40:43.178Z,-0.80
2023-02-12T05:41:44.620Z,-0.80
2023-02-12T05:42:46.106Z,-0.80
2023-02-12T05:43:49.843Z,-0.90
2023-02-12T05:44:51.420Z,-0.90
2023-02-12T05:45:53.804Z,-0.90
2023-02-12T05:46:55.414Z,-0.90
2023-02-12T05:47:57.480Z,-0.90
2023-02-12T05:48:59.215Z,-0.90
2023-02-12T05:50:00.591Z,-0.80
2023-02-12T05:51:06.926Z,-0.90
2023-02-12T05:52:08.326Z,-0.80
2023-02-12T05:53:09.913Z,-0.80
2023-02-12T05:54:11.579Z,-0.90
2023-02-12T05:55:12.973Z,-0.90
2023-02-12T05:56:24.103Z,-0.90
2023-02-12T05:57:25.574Z,-0.90
2023-02-12T05:58:26.970Z,-1.00
2023-02-12T05:59:28.828Z,-1.00
2023-02-12T06:00:30.655Z,-1.00
2023-02-12T06:01:38.246Z,-1.00
2023-02-12T06:02:40.218Z,-1.00
2023-02-12T06:03:41.890Z,-1.00
2023-02-12T06:04:43.329Z,-1.00
2023-02-12T06:05:50.893Z,-1.00
2023-02-12T06:06:53.612Z,-0.90
2023-02-12T06:07:55.196Z,-0.90
2023-02-12T06:08:58.355Z,-1.00
2023-02-12T06:10:00.405Z,-1.00
2023-02-12T06:11:07.326Z,-0.90
2023-02-12T06:12:08.752Z,-0.90
2023-02-12T06:13:10.409Z,-0.90
2023-02-12T06:14:15.312Z,-0.90
2023-02-12T06:15:16.728Z,-0.90
2023-02-12T06:16:24.800Z,-0.90
2023-02-12T06:17:27.143Z,-1.00
2023-02-12T06:18:29.259Z,-1.00
2023-02-12T06:19:30.845Z,-1.00
2023-02-12T06:20:32.285Z,-1.00
2023-02-12T06:21:34.344Z,-1.00
2023-02-12T06:22:36.183Z,-1.00
2023-02-12T06:23:37.600Z,-0.90
2023-02-12T06:24:39.199Z,-1.00
2023-02-12T06:25:40.768Z,-0.90
2023-02-12T06:26:42.290Z,-1.00
2023-02-12T06:27:43.727Z,-1.00
2023-02-12T06:28:45.832Z,-1.00
2023-02-12T06:29:47.305Z,-1.00
2023-02-12T06:30:48.731Z,-1.10
2023-02-12T06:31:50.638Z,-1.10
2023-02-12T06:32:52.259Z,-1.00
2023-02-12T06:33:54.993Z,-1.10
2023-02-12T06:34:56.754Z,-1.10
2023-02-12T06:35:58.419Z,-1.10
2023-02-12T06:36:59.931Z,-1.10
2023-02-12T06:38:01.383Z,-1.10
2023-02-12T06:39:03.555Z,-1.10
2023-02-12T06:40:05.906Z,-1.10
2023-02-12T06:41:07.337Z,-1.00
2023-02-12T06:42:08.746Z,-1.00
2023-02-12T06:43:10.289Z,-1.00
2023-02-12T06:44:13.125Z,-1.00
2023-02-12T06:45:14.729Z,-1.10
2023-02-12T06:46:16.494Z,-1.10
2023-02-12T06:47:17.973Z,-1.10
2023-02-12T06:48:19.371Z,-1.10
2023-02-12T06:49:21.030Z,-1.00
2023-02-12T06:50:22.584Z,-1.00
2023-02-12T06:51:25.364Z,-0.90
2023-02-12T06:52:27.577Z,-0.90
2023-02-12T06:53:28.968Z,-0.90
2023-02-12T06:54:30.480Z,-0.90
2023-02-12T06:55:31.822Z,-0.90
2023-02-12T06:56:33.245Z,-0.80
2023-02-12T06:57:34.682Z,-0.90
2023-02-12T06:58:36.230Z,-1.00
2023-02-12T06:59:37.644Z,-1.00
2023-02-12T07:00:39.172Z,-0.90
2023-02-12T07:01:41.377Z,-0.90
2023-02-12T07:02:43.356Z,-1.00
2023-02-12T07:03:55.433Z,-1.00
2023-02-12T07:04:56.886Z,-1.00
2023-02-12T07:05:58.394Z,-1.00
2023-02-12T07:06:59.924Z,-1.00
2023-02-12T07:08:01.585Z,-1.00
2023-02-12T07:09:04.787Z,-1.00
2023-02-12T07:10:06.791Z,-1.00
2023-02-12T07:11:08.804Z,-1.00
2023-02-12T07:12:10.442Z,-1.00
2023-02-12T07:13:11.908Z,-1.00
2023-02-12T07:14:17.088Z,-1.00
2023-02-12T07:15:18.633Z,-0.90
2023-02-12T07:16:20.669Z,-1.00
2023-02-12T07:17:22.082Z,-0.90
2023-02-12T07:18:23.586Z,-0.90
2023-02-12T07:19:25.835Z,-0.90
2023-02-12T07:20:27.284Z,-0.80
2023-02-12T07:21:29.091Z,-0.80
2023-02-12T07:22:30.815Z,-0.90
2023-02-12T07:23:33.028Z,-0.90
2023-02-12T07:24:34.555Z,-0.90
2023-02-12T07:25:36.095Z,-0.90
2023-02-12T07:26:37.890Z,-0.80
2023-02-12T07:27:39.430Z,-0.80
2023-02-12T07:28:41.878Z,-0.80
2023-02-12T07:29:43.382Z,-0.80
2023-02-12T07:30:44.769Z,-0.80
2023-02-12T07:31:46.397Z,-0.80
2023-02-12T07:32:47.842Z,-0.80
2023-02-12T07:33:53.263Z,-0.80
2023-02-12T07:34:54.947Z,-0.80
2023-02-12T07:36:00.764Z,-0.80
2023-02-12T07:37:02.250Z,-0.70
2023-02-12T07:38:03.650Z,-0.70
2023-02-12T07:39:05.601Z,-0.70
2023-02-12T07:40:07.957Z,-0.70
2023-02-12T07:41:15.175Z,-0.70
2023-02-12T07:42:16.712Z,-0.70
2023-02-12T07:43:23.260Z,-0.70
2023-02-12T07:44:24.954Z,-0.70
2023-02-12T07:45:26.601Z,-0.70
2023-02-12T07:46:31.414Z,-0.70
2023-02-12T07:47:33.023Z,-0.60
2023-02-12T07:48:34.612Z,-0.60
2023-02-12T07:49:36.177Z,-0.60
2023-02-12T07:50:37.649Z,-0.50
2023-02-12T07:51:39.289Z,-0.50
2023-02-12T07:52:40.671Z,-0.50
2023-02-12T07:53:42.545Z,-0.40
2023-02-12T07:54:44.153Z,-0.40
2023-02-12T07:55:45.758Z,-0.40
2023-02-12T07:56:47.575Z,-0.30
2023-02-12T07:57:49.069Z,-0.20
2023-02-12T07:58:52.911Z,-0.20
2023-02-12T07:59:54.392Z,-0.20
2023-02-12T08:00:55.863Z,-0.20
2023-02-12T08:01:59.383Z,-0.10
2023-02-12T08:03:00.895Z,-0.20
2023-02-12T08:04:05.985Z,-0.10
2023-02-12T08:05:07.970Z,-0.10
2023-02-12T08:06:11.725Z,-0.10
2023-02-12T08:07:13.180Z,-0.10
2023-02-12T08:08:14.635Z,-0.10
2023-02-12T08:09:22.129Z,-0.10
2023-02-12T08:10:23.731Z,0.00
2023-02-12T08:11:26.842Z,0.00
2023-02-12T08:12:28.390Z,0.10
2023-02-12T08:13:30.148Z,0.10
2023-02-12T08:14:31.568Z,0.10
2023-02-12T08:15:33.006Z,0.20
2023-02-12T08:16:39.678Z,0.30
2023-02-12T08:17:43.545Z,0.40
2023-02-12T08:18:45.562Z,0.40
2023-02-12T08:19:46.922Z,0.40
2023-02-12T08:20:48.399Z,0.40
2023-02-12T08:21:51.458Z,0.40
2023-02-12T08:22:52.868Z,0.50
2023-02-12T08:23:55.687Z,0.50
2023-02-12T08:24:57.306Z,0.50
2023-02-12T08:26:12.825Z,0.60
2023-02-12T08:27:14.260Z,0.60
2023-02-12T08:28:15.672Z,0.70
2023-02-12T08:29:27.183Z,0.80
2023-02-12T08:30:29.016Z,0.80
2023-02-12T08:31:35.974Z,0.80
2023-02-12T08:32:37.533Z,0.80
2023-02-12T08:33:38.925Z,0.80
2023-02-12T08:34:40.790Z,0.80
2023-02-12T08:35:42.150Z,0.90
2023-02-12T08:36:44.410Z,0.90
2023-02-12T08:37:45.817Z,0.90
2023-02-12T08:38:48.232Z,1.00
2023-02-12T08:39:49.632Z,1.00
2023-02-12T08:40:51.058Z,1.20
2023-02-12T08:41:55.149Z,1.30
2023-02-12T08:42:56.647Z,1.20
2023-02-12T08:44:01.871Z,1.20
2023-02-12T08:45:03.365Z,1.20
2023-02-12T08:46:10.537Z,1.30
2023-02-12T08:47:11.987Z,1.30
2023-02-12T08:48:13.372Z,1.30
2023-02-12T08:49:18.029Z,1.30
2023-02-12T08:50:19.999Z,1.40
2023-02-12T08:51:33.242Z,1.40
2023-02-12T08:52:35.641Z,1.50
2023-02-12T08:53:38.956Z,1.50
2023-02-12T08:54:40.341Z,1.60
2023-02-12T08:55:48.872Z,1.60
2023-02-12T08:56:51.179Z,1.70
2023-02-12T08:57:57.764Z,1.80
2023-02-12T08:59:00.536Z,1.80
2023-02-12T09:00:02.134Z,1.90
2023-02-12T09:01:05.473Z,1.90
2023-02-12T09:02:08.780Z,1.90
2023-02-12T09:03:11.230Z,2.00
2023-02-12T09:04:18.773Z,2.00
2023-02-12T09:05:20.281Z,2.10
2023-02-12T09:06:23.736Z,2.10
2023-02-12T09:07:25.293Z,2.20
2023-02-12T09:08:27.089Z,2.20
2023-02-12T09:09:28.472Z,2.30
2023-02-12T09:10:29.905Z,2.30
2023-02-12T09:11:31.498Z,2.30
2023-02-12T09:12:32.938Z,2.40
2023-02-12T09:13:34.963Z,2.40
2023-02-12T09:14:36.497Z,2.40
2023-02-12T09:15:44.868Z,2.50
2023-02-12T09:16:46.630Z,2.60
2023-02-12T09:17:48.089Z,2.60
2023-02-12T09:18:49.534Z,2.60
2023-02-12T09:19:50.908Z,2.70
2023-02-12T09:20:52.259Z,2.70
2023-02-12T09:21:56.455Z,2.80
2023-02-12T09:22:59.440Z,2.80
2023-02-12T09:24:02.297Z,2.90
2023-02-12T09:25:05.547Z,2.90
2023-02-12T09:26:09.790Z,3.00
2023-02-12T09:27:11.211Z,3.00
2023-02-12T09:28:14.567Z,3.10
2023-02-12T09:29:16.265Z,3.10
2023-02-12T09:30:18.527Z,3.30
2023-02-12T09:31:31.767Z,3.30
2023-02-12T09:32:33.316Z,3.30
2023-02-12T09:33:35.156Z,3.50
2023-02-12T09:34:36.982Z,3.60
2023-02-12T09:35:39.543Z,3.60
2023-02-12T09:36:40.996Z,3.60
2023-02-12T09:37:44.753Z,3.70
2023-02-12T09:38:46.450Z,3.70
2023-02-12T09:39:50.858Z,3.80
2023-02-12T09:40:55.723Z,3.90
2023-02-12T09:42:20.880Z,3.90
2023-02-12T09:43:40.018Z,4.00
2023-02-12T09:44:59.543Z,4.00
2023-02-12T09:46:14.466Z,4.00
2023-02-12T09:47:23.924Z,4.00
2023-02-12T09:48:37.739Z,4.10
2023-02-12T09:50:03.250Z,4.20
2023-02-12T09:51:08.033Z,4.30
2023-02-12T09:52:19.068Z,4.30
2023-02-12T09:53:27.888Z,4.30
2023-02-12T09:54:37.650Z,4.40
2023-02-12T09:55:40.737Z,4.50
2023-02-12T09:56:48.005Z,4.50
2023-02-12T09:57:49.579Z,4.50
2023-02-12T09:58:56.774Z,4.50
2023-02-12T10:00:11.428Z,4.50
2023-02-12T10:01:15.071Z,4.50
2023-02-12T10:02:20.730Z,4.50
2023-02-12T10:03:25.437Z,4.60
2023-02-12T10:04:35.888Z,4.60
2023-02-12T10:05:51.912Z,4.60
2023-02-12T10:07:31.843Z,4.60
2023-02-12T10:08:40.499Z,4.70
2023-02-12T10:09:53.873Z,4.70
2023-02-12T10:11:11.142Z,4.80
2023-02-12T10:12:26.150Z,4.80
2023-02-12T10:13:49.096Z,4.80
2023-02-12T10:15:18.671Z,4.80
2023-02-12T10:16:48.070Z,4.90
2023-02-12T10:18:23.532Z,4.90
2023-02-12T10:20:01.869Z,4.90
2023-02-12T10:21:23.278Z,5.00
2023-02-12T10:22:56.880Z,5.00
2023-02-12T10:24:20.211Z,5.00
2023-02-12T10:25:48.135Z,5.10
2023-02-12T10:26:52.873Z,5.10
2023-02-12T10:28:02.099Z,5.10
2023-02-12T10:29:18.857Z,5.10
2023-02-12T10:30:40.849Z,5.10
2023-02-12T10:31:47.202Z,5.10
2023-02-12T10:32:52.870Z,5.10
2023-02-12T10:33:56.979Z,5.10
2023-02-12T10:34:59.578Z,5.10
2023-02-12T10:36:19.343Z,5.10
2023-02-12T10:37:37.801Z,5.10
2023-02-12T10:38:45.777Z,5.10
2023-02-12T10:39:58.441Z,5.10
2023-02-12T10:41:01.888Z,5.10
2023-02-12T10:42:36.705Z,5.10
2023-02-12T10:43:38.154Z,5.20
2023-02-12T10:44:39.627Z,5.20
2023-02-12T10:45:43.261Z,5.20
2023-02-12T10:46:44.906Z,5.10
2023-02-12T10:47:49.231Z,5.10
2023-02-12T10:48:58.899Z,5.20
2023-02-12T10:50:02.292Z,5.30
2023-02-12T10:51:09.950Z,5.30
2023-02-12T10:52:43.778Z,5.40
2023-02-12T10:53:46.827Z,5.40
2023-02-12T10:54:49.475Z,5.40
2023-02-12T10:56:21.581Z,5.30
2023-02-12T10:57:24.645Z,5.30
2023-02-12T10:58:26.201Z,5.30
2023-02-12T10:59:29.384Z,5.40
2023-02-12T11:00:38.236Z,5.40
2023-02-12T11:01:41.267Z,5.50
2023-02-12T11:03:10.951Z,5.60
2023-02-12T11:04:30.410Z,5.60
2023-02-12T11:05:35.924Z,5.60
2023-02-12T11:06:39.003Z,5.60
2023-02-12T11:07:49.880Z,5.60
2023-02-12T11:08:51.993Z,5.70
2023-02-12T11:09:56.403Z,5.70
2023-02-12T11:11:26.285Z,5.70
2023-02-12T11:12:36.906Z,5.60
2023-02-12T11:13:41.632Z,5.70
2023-02-12T11:14:53.529Z,5.80
2023-02-12T11:15:55.581Z,5.70
2023-02-12T11:17:00.138Z,5.70
2023-02-12T11:18:07.621Z,5.70
2023-02-12T11:19:24.840Z,5.80
2023-02-12T11:20:41.262Z,5.90
2023-02-12T11:21:43.186Z,5.90
2023-02-12T11:22:57.506Z,5.90
2023-02-12T11:24:30.859Z,5.90
2023-02-12T11:25:35.958Z,5.80
2023-02-12T11:26:37.661Z,5.90
2023-02-12T11:27:39.043Z,6.00
2023-02-12T11:28:52.677Z,6.00
2023-02-12T11:30:20.274Z,6.00
2023-02-12T11:31:27.530Z,6.00
2023-02-12T11:32:29.049Z,6.10
2023-02-12T11:33:34.808Z,6.10
2023-02-12T11:34:37.047Z,6.20
2023-02-12T11:35:53.479Z,6.20
2023-02-12T11:36:55.349Z,6.30
2023-02-12T11:37:59.157Z,6.30
2023-02-12T11:39:01.147Z,6.40
2023-02-12T11:40:03.184Z,6.40
2023-02-12T11:41:21.092Z,6.50
2023-02-12T11:42:25.847Z,6.50
2023-02-12T11:43:30.958Z,6.60
2023-02-12T11:44:37.344Z,6.60
2023-02-12T11:46:00.263Z,6.60
2023-02-12T11:47:09.040Z,6.60
2023-02-12T11:48:22.354Z,6.70
2023-02-12T11:49:27.478Z,6.70
2023-02-12T11:50:33.233Z,6.70
2023-02-12T11:51:36.139Z,6.70
2023-02-12T11:52:40.326Z,6.80
2023-02-12T11:53:47.298Z,6.80
2023-02-12T11:54:51.109Z,6.80
2023-02-12T11:55:55.933Z,6.80
2023-02-12T11:56:57.569Z,6.80
2023-02-12T11:58:16.966Z,6.90
2023-02-12T11:59:33.070Z,7.00
2023-02-12T12:00:43.395Z,7.00
2023-02-12T12:01:46.322Z,6.90
2023-02-12T12:02:56.171Z,7.00
2023-02-12T12:04:32.597Z,7.00
2023-02-12T12:05:45.475Z,7.10
2023-02-12T12:06:56.606Z,7.10
2023-02-12T12:08:02.274Z,7.10
2023-02-12T12:09:26.736Z,7.00
2023-02-12T12:10:42.863Z,7.10
2023-02-12T12:12:06.672Z,7.10
2023-02-12T12:13:17.247Z,7.10
2023-02-12T12:15:04.192Z,7.00
2023-02-12T12:17:05.004Z,7.10
2023-02-12T12:18:49.533Z,7.00
2023-02-12T12:20:11.358Z,7.10
2023-02-12T12:21:38.982Z,7.10
2023-02-12T12:23:02.047Z,7.10
2023-02-12T12:24:13.326Z,7.10
2023-02-12T12:25:28.236Z,7.20
2023-02-12T12:26:34.480Z,7.30
2023-02-12T12:28:02.990Z,7.30
2023-02-12T12:29:24.888Z,7.30
2023-02-12T12:30:36.585Z,7.30
2023-02-12T12:31:45.740Z,7.30
2023-02-12T12:32:49.768Z,7.30
2023-02-12T12:33:56.322Z,7.30
2023-02-12T12:34:57.823Z,7.40
2023-02-12T12:36:14.468Z,7.40
2023-02-12T12:37:35.019Z,7.50
2023-02-12T12:39:00.840Z,7.50
2023-02-12T12:40:39.909Z,7.40
2023-02-12T12:41:58.868Z,7.50
2023-02-12T12:43:23.400Z,7.50
2023-02-12T12:45:05.083Z,7.60
2023-02-12T12:46:32.498Z,7.70
2023-02-12T12:47:37.079Z,7.70
2023-02-12T12:49:04.871Z,7.70
2023-02-12T12:50:25.062Z,7.80
2023-02-12T12:51:42.166Z,7.80
2023-02-12T12:52:55.989Z,7.80
2023-02-12T12:54:12.271Z,7.90
2023-02-12T12:55:24.112Z,8.00
2023-02-12T12:56:46.580Z,8.00
2023-02-12T12:58:19.938Z,8.00
2023-02-12T12:59:55.558Z,7.90
2023-02-12T13:01:15.539Z,8.00
2023-02-12T13:02:51.731Z,8.00
2023-02-12T13:04:22.807Z,8.10
2023-02-12T13:05:42.256Z,8.20
2023-02-12T13:07:20.975Z,8.20
2023-02-12T13:08:40.612Z,8.20
2023-02-12T13:09:53.919Z,8.30
2023-02-12T13:11:06.876Z,8.30
2023-02-12T13:12:29.411Z,8.40
2023-02-12T13:13:37.503Z,8.40
2023-02-12T13:14:48.315Z,8.50
2023-02-12T13:16:09.659Z,8.60
2023-02-12T13:17:23.820Z,8.50
2023-02-12T13:18:39.386Z,8.50
2023-02-12T13:19:46.829Z,8.60
2023-02-12T13:21:14.116Z,8.60
2023-02-12T13:22:19.679Z,8.70
2023-02-12T13:23:53.901Z,8.70
2023-02-12T13:25:02.435Z,8.70
2023-02-12T13:26:13.076Z,8.70
2023-02-12T13:27:20.008Z,8.70
2023-02-12T13:28:42.063Z,8.70
2023-02-12T13:29:50.228Z,8.70
2023-02-12T13:30:54.110Z,8.80
2023-02-12T13:32:00.630Z,8.70
2023-02-12T13:33:05.628Z,8.80
2023-02-12T13:34:13.789Z,8.80
2023-02-12T13:35:22.817Z,8.90
2023-02-12T13:36:24.400Z,8.80
2023-02-12T13:37:48.787Z,8.80
2023-02-12T13:39:20.610Z,8.90
2023-02-12T13:40:25.388Z,8.90
2023-02-12T13:41:28.823Z,8.90
2023-02-12T13:42:43.188Z,8.90
2023-02-12T13:44:09.462Z,8.90
2023-02-12T13:45:20.069Z,8.90
2023-02-12T13:46:34.181Z,9.00
2023-02-12T13:47:58.798Z,9.00
2023-02-12T13:49:17.901Z,9.00
2023-02-12T13:50:28.480Z,9.00
2023-02-12T13:52:05.774Z,9.00
2023-02-12T13:53:20.312Z,9.00
2023-02-12T13:54:21.756Z,9.00
2023-02-12T13:56:02.040Z,9.00
2023-02-12T13:57:12.018Z,9.00
2023-02-12T13:58:32.122Z,9.10
2023-02-12T13:59:34.228Z,9.00
2023-02-12T14:00:56.753Z,9.00
2023-02-12T14:02:03.501Z,9.00
2023-02-12T14:03:09.490Z,9.10
2023-02-12T14:04:30.064Z,9.10
2023-02-12T14:05:33.834Z,9.10
2023-02-12T14:06:35.780Z,9.10
2023-02-12T14:08:01.874Z,9.10
2023-02-12T14:09:11.725Z,9.10
2023-02-12T14:10:24.915Z,9.10
2023-02-12T14:11:27.046Z,9.10
2023-02-12T14:12:35.033Z,9.10
2023-02-12T14:14:06.267Z,9.10
2023-02-12T14:15:09.793Z,8.90
2023-02-12T14:16:38.536Z,8.80
2023-02-12T14:17:41.955Z,8.70
2023-02-12T14:18:43.484Z,8.60
2023-02-12T14:19:50.636Z,8.50
2023-02-12T14:21:13.986Z,8.40
2023-02-12T14:22:24.532Z,8.30
2023-02-12T14:23:33.402Z,8.20
2023-02-12T14:24:38.281Z,8.10
2023-02-12T14:25:44.264Z,8.00
2023-02-12T14:26:45.832Z,8.10
2023-02-12T14:28:18.170Z,8.00
2023-02-12T14:29:24.311Z,7.80
2023-02-12T14:30:26.753Z,7.80
2023-02-12T14:31:28.467Z,7.70
2023-02-12T14:32:58.138Z,7.60
2023-02-12T14:34:05.363Z,7.50
2023-02-12T14:35:43.539Z,7.50
2023-02-12T14:37:08.461Z,7.50
2023-02-12T14:38:12.889Z,7.40
2023-02-12T14:39:20.050Z,7.40
2023-02-12T14:40:42.238Z,7.30
2023-02-12T14:41:44.047Z,7.30
2023-02-12T14:42:55.953Z,7.20
2023-02-12T14:44:17.614Z,7.20
2023-02-12T14:45:36.674Z,7.10
2023-02-12T14:46:38.162Z,7.00
2023-02-12T14:47:39.796Z,7.00